sensor_id;sensor_type;location;lat;lon;timestamp;P1;durP1;ratioP1;P2;durP2;ratioP2
74487;SDS011;63019;51.080;13.642;2023-05-07T00:01:02;21.63;;;10.05;;
74487;SDS011;63019;51.080;13.642;2023-05-07T00:02:09;20.20;;;9.77;;
74487;SDS011;63019;51.080;13.642;2023-05-07T00:03:16;29.00;;;10.32;;
74487;SDS011;63019;51.080;13.642;2023-05-07T00:04:22;20.10;;;9.88;;
74487;SDS011;63019;51.080;13.642;2023-05-07T00:05:25;23.40;;;9.75;;
74487;SDS011;63019;51.080;13.642;2023-05-07T00:06:28;19.20;;;9.97;;
74487;SDS011;63019;51.080;13.642;2023-05-07T00:07:32;21.20;;;9.43;;
74487;SDS011;63019;51.080;13.642;2023-05-07T00:08:34;22.45;;;9.50;;
74487;SDS011;63019;51.080;13.642;2023-05-07T00:09:38;21.48;;;9.43;;
74487;SDS011;63019;51.080;13.642;2023-05-07T00:10:42;18.15;;;8.90;;
74487;SDS011;63019;51.080;13.642;2023-05-07T00:11:46;18.10;;;8.57;;
74487;SDS011;63019;51.080;13.642;2023-05-07T00:12:48;17.65;;;7.97;;
74487;SDS011;63019;51.080;13.642;2023-05-07T00:13:51;16.33;;;8.52;;
74487;SDS011;63019;51.080;13.642;2023-05-07T00:14:53;18.23;;;8.57;;
74487;SDS011;63019;51.080;13.642;2023-05-07T00:15:56;16.17;;;8.48;;
74487;SDS011;63019;51.080;13.642;2023-05-07T00:16:58;18.57;;;9.20;;
74487;SDS011;63019;51.080;13.642;2023-05-07T00:18:01;18.93;;;8.37;;
74487;SDS011;63019;51.080;13.642;2023-05-07T00:19:04;20.35;;;7.90;;
74487;SDS011;63019;51.080;13.642;2023-05-07T00:20:06;16.95;;;7.68;;
74487;SDS011;63019;51.080;13.642;2023-05-07T00:21:10;15.00;;;7.60;;
74487;SDS011;63019;51.080;13.642;2023-05-07T00:22:14;15.93;;;7.05;;
74487;SDS011;63019;51.080;13.642;2023-05-07T00:23:17;13.27;;;7.32;;
74487;SDS011;63019;51.080;13.642;2023-05-07T00:24:19;15.88;;;8.18;;
74487;SDS011;63019;51.080;13.642;2023-05-07T00:25:23;16.40;;;7.88;;
74487;SDS011;63019;51.080;13.642;2023-05-07T00:26:27;18.88;;;7.82;;
74487;SDS011;63019;51.080;13.642;2023-05-07T00:27:29;16.60;;;7.57;;
74487;SDS011;63019;51.080;13.642;2023-05-07T00:28:31;18.77;;;8.30;;
74487;SDS011;63019;51.080;13.642;2023-05-07T00:29:36;17.95;;;8.60;;
74487;SDS011;63019;51.080;13.642;2023-05-07T00:30:38;14.93;;;7.97;;
74487;SDS011;63019;51.080;13.642;2023-05-07T00:31:40;16.73;;;8.00;;
74487;SDS011;63019;51.080;13.642;2023-05-07T00:32:43;20.27;;;8.45;;
74487;SDS011;63019;51.080;13.642;2023-05-07T00:33:48;15.95;;;8.02;;
74487;SDS011;63019;51.080;13.642;2023-05-07T00:34:51;16.55;;;7.60;;
74487;SDS011;63019;51.080;13.642;2023-05-07T00:35:55;20.25;;;8.60;;
74487;SDS011;63019;51.080;13.642;2023-05-07T00:36:59;16.83;;;8.60;;
74487;SDS011;63019;51.080;13.642;2023-05-07T00:38:01;17.98;;;8.60;;
74487;SDS011;63019;51.080;13.642;2023-05-07T00:39:04;15.27;;;8.40;;
74487;SDS011;63019;51.080;13.642;2023-05-07T00:40:06;16.95;;;8.52;;
74487;SDS011;63019;51.080;13.642;2023-05-07T00:41:10;15.40;;;8.52;;
74487;SDS011;63019;51.080;13.642;2023-05-07T00:42:13;18.70;;;8.98;;
74487;SDS011;63019;51.080;13.642;2023-05-07T00:43:17;15.90;;;8.98;;
74487;SDS011;63019;51.080;13.642;2023-05-07T00:44:20;16.67;;;8.07;;
74487;SDS011;63019;51.080;13.642;2023-05-07T00:45:22;19.98;;;8.55;;
74487;SDS011;63019;51.080;13.642;2023-05-07T00:46:28;19.52;;;8.40;;
74487;SDS011;63019;51.080;13.642;2023-05-07T00:47:33;15.90;;;8.48;;
74487;SDS011;63019;51.080;13.642;2023-05-07T00:48:35;19.83;;;9.07;;
74487;SDS011;63019;51.080;13.642;2023-05-07T00:49:38;14.27;;;8.07;;
74487;SDS011;63019;51.080;13.642;2023-05-07T00:50:45;20.30;;;9.40;;
74487;SDS011;63019;51.080;13.642;2023-05-07T00:51:48;17.73;;;9.15;;
74487;SDS011;63019;51.080;13.642;2023-05-07T00:52:52;23.90;;;9.70;;
74487;SDS011;63019;51.080;13.642;2023-05-07T00:53:55;17.58;;;9.35;;
74487;SDS011;63019;51.080;13.642;2023-05-07T00:55:00;15.35;;;9.63;;
74487;SDS011;63019;51.080;13.642;2023-05-07T00:56:07;17.15;;;9.30;;
74487;SDS011;63019;51.080;13.642;2023-05-07T00:57:10;18.50;;;9.88;;
74487;SDS011;63019;51.080;13.642;2023-05-07T00:58:13;21.85;;;10.52;;
74487;SDS011;63019;51.080;13.642;2023-05-07T00:59:16;19.95;;;9.80;;
74487;SDS011;63019;51.080;13.642;2023-05-07T01:00:19;17.10;;;9.87;;
74487;SDS011;63019;51.080;13.642;2023-05-07T01:01:23;18.92;;;10.35;;
74487;SDS011;63019;51.080;13.642;2023-05-07T01:02:26;18.17;;;9.80;;
74487;SDS011;63019;51.080;13.642;2023-05-07T01:03:29;22.00;;;9.52;;
74487;SDS011;63019;51.080;13.642;2023-05-07T01:04:33;18.15;;;9.60;;
74487;SDS011;63019;51.080;13.642;2023-05-07T01:05:37;21.48;;;9.68;;
74487;SDS011;63019;51.080;13.642;2023-05-07T01:06:42;18.60;;;9.82;;
74487;SDS011;63019;51.080;13.642;2023-05-07T01:07:47;18.05;;;10.40;;
74487;SDS011;63019;51.080;13.642;2023-05-07T01:08:50;19.95;;;9.88;;
74487;SDS011;63019;51.080;13.642;2023-05-07T01:09:54;17.88;;;9.57;;
74487;SDS011;63019;51.080;13.642;2023-05-07T01:10:57;22.20;;;9.83;;
74487;SDS011;63019;51.080;13.642;2023-05-07T01:12:01;22.83;;;9.85;;
74487;SDS011;63019;51.080;13.642;2023-05-07T01:13:04;19.70;;;10.25;;
74487;SDS011;63019;51.080;13.642;2023-05-07T01:14:08;20.05;;;10.52;;
74487;SDS011;63019;51.080;13.642;2023-05-07T01:15:11;18.17;;;10.07;;
74487;SDS011;63019;51.080;13.642;2023-05-07T01:16:14;20.88;;;9.85;;
74487;SDS011;63019;51.080;13.642;2023-05-07T01:17:17;19.08;;;9.82;;
74487;SDS011;63019;51.080;13.642;2023-05-07T01:18:19;18.77;;;9.20;;
74487;SDS011;63019;51.080;13.642;2023-05-07T01:19:24;15.80;;;8.82;;
74487;SDS011;63019;51.080;13.642;2023-05-07T01:20:27;15.77;;;8.70;;
74487;SDS011;63019;51.080;13.642;2023-05-07T01:21:32;17.67;;;8.83;;
74487;SDS011;63019;51.080;13.642;2023-05-07T01:22:39;16.75;;;9.20;;
74487;SDS011;63019;51.080;13.642;2023-05-07T01:23:42;15.52;;;9.18;;
74487;SDS011;63019;51.080;13.642;2023-05-07T01:24:46;17.48;;;8.88;;
74487;SDS011;63019;51.080;13.642;2023-05-07T01:25:52;14.63;;;8.45;;
74487;SDS011;63019;51.080;13.642;2023-05-07T01:26:56;18.48;;;9.30;;
74487;SDS011;63019;51.080;13.642;2023-05-07T01:27:58;15.98;;;9.45;;
74487;SDS011;63019;51.080;13.642;2023-05-07T01:29:03;19.30;;;9.43;;
74487;SDS011;63019;51.080;13.642;2023-05-07T01:30:07;19.70;;;9.65;;
74487;SDS011;63019;51.080;13.642;2023-05-07T01:31:12;18.63;;;9.43;;
74487;SDS011;63019;51.080;13.642;2023-05-07T01:32:16;18.30;;;9.67;;
74487;SDS011;63019;51.080;13.642;2023-05-07T01:33:26;18.23;;;9.98;;
74487;SDS011;63019;51.080;13.642;2023-05-07T01:34:33;18.70;;;9.80;;
74487;SDS011;63019;51.080;13.642;2023-05-07T01:35:39;15.75;;;9.23;;
74487;SDS011;63019;51.080;13.642;2023-05-07T01:36:46;18.15;;;10.15;;
74487;SDS011;63019;51.080;13.642;2023-05-07T01:37:49;15.18;;;8.93;;
74487;SDS011;63019;51.080;13.642;2023-05-07T01:38:52;18.00;;;9.60;;
74487;SDS011;63019;51.080;13.642;2023-05-07T01:39:54;17.98;;;9.68;;
74487;SDS011;63019;51.080;13.642;2023-05-07T01:40:58;16.85;;;9.25;;
74487;SDS011;63019;51.080;13.642;2023-05-07T01:42:00;18.77;;;9.38;;
74487;SDS011;63019;51.080;13.642;2023-05-07T01:43:03;18.03;;;9.10;;
74487;SDS011;63019;51.080;13.642;2023-05-07T01:44:06;23.48;;;9.98;;
74487;SDS011;63019;51.080;13.642;2023-05-07T01:45:10;18.48;;;9.18;;
74487;SDS011;63019;51.080;13.642;2023-05-07T01:46:13;19.83;;;8.73;;
74487;SDS011;63019;51.080;13.642;2023-05-07T01:47:17;17.33;;;9.55;;
74487;SDS011;63019;51.080;13.642;2023-05-07T01:48:20;18.42;;;8.45;;
74487;SDS011;63019;51.080;13.642;2023-05-07T01:49:23;15.50;;;8.43;;
74487;SDS011;63019;51.080;13.642;2023-05-07T01:50:25;14.45;;;7.85;;
74487;SDS011;63019;51.080;13.642;2023-05-07T01:51:29;15.40;;;8.52;;
74487;SDS011;63019;51.080;13.642;2023-05-07T01:52:31;14.40;;;7.82;;
74487;SDS011;63019;51.080;13.642;2023-05-07T01:53:37;16.20;;;8.30;;
74487;SDS011;63019;51.080;13.642;2023-05-07T01:54:42;13.50;;;7.50;;
74487;SDS011;63019;51.080;13.642;2023-05-07T01:55:46;15.13;;;8.00;;
74487;SDS011;63019;51.080;13.642;2023-05-07T01:56:48;14.52;;;8.07;;
74487;SDS011;63019;51.080;13.642;2023-05-07T01:57:51;13.93;;;8.05;;
74487;SDS011;63019;51.080;13.642;2023-05-07T01:58:55;14.82;;;7.90;;
74487;SDS011;63019;51.080;13.642;2023-05-07T01:59:58;15.20;;;8.23;;
74487;SDS011;63019;51.080;13.642;2023-05-07T02:01:07;16.08;;;9.13;;
74487;SDS011;63019;51.080;13.642;2023-05-07T02:02:10;14.63;;;8.10;;
74487;SDS011;63019;51.080;13.642;2023-05-07T02:03:13;17.60;;;8.32;;
74487;SDS011;63019;51.080;13.642;2023-05-07T02:04:17;15.27;;;9.07;;
74487;SDS011;63019;51.080;13.642;2023-05-07T02:05:20;15.90;;;8.75;;
74487;SDS011;63019;51.080;13.642;2023-05-07T02:06:24;15.98;;;8.68;;
74487;SDS011;63019;51.080;13.642;2023-05-07T02:07:28;16.05;;;8.52;;
74487;SDS011;63019;51.080;13.642;2023-05-07T02:08:30;17.73;;;8.82;;
74487;SDS011;63019;51.080;13.642;2023-05-07T02:09:33;18.45;;;9.30;;
74487;SDS011;63019;51.080;13.642;2023-05-07T02:10:36;14.68;;;8.30;;
74487;SDS011;63019;51.080;13.642;2023-05-07T02:11:38;15.90;;;8.80;;
74487;SDS011;63019;51.080;13.642;2023-05-07T02:12:42;15.85;;;7.90;;
74487;SDS011;63019;51.080;13.642;2023-05-07T02:13:46;14.00;;;8.18;;
74487;SDS011;63019;51.080;13.642;2023-05-07T02:14:49;17.43;;;8.63;;
74487;SDS011;63019;51.080;13.642;2023-05-07T02:15:51;16.23;;;8.77;;
74487;SDS011;63019;51.080;13.642;2023-05-07T02:16:55;16.38;;;8.40;;
74487;SDS011;63019;51.080;13.642;2023-05-07T02:18:01;17.20;;;8.43;;
74487;SDS011;63019;51.080;13.642;2023-05-07T02:19:08;18.05;;;9.50;;
74487;SDS011;63019;51.080;13.642;2023-05-07T02:20:10;17.27;;;8.55;;
74487;SDS011;63019;51.080;13.642;2023-05-07T02:21:14;17.70;;;9.00;;
74487;SDS011;63019;51.080;13.642;2023-05-07T02:22:17;14.80;;;8.50;;
74487;SDS011;63019;51.080;13.642;2023-05-07T02:23:20;17.30;;;9.18;;
74487;SDS011;63019;51.080;13.642;2023-05-07T02:24:24;17.75;;;8.68;;
74487;SDS011;63019;51.080;13.642;2023-05-07T02:25:26;17.03;;;9.00;;
74487;SDS011;63019;51.080;13.642;2023-05-07T02:26:28;15.88;;;8.60;;
74487;SDS011;63019;51.080;13.642;2023-05-07T02:27:31;15.48;;;8.43;;
74487;SDS011;63019;51.080;13.642;2023-05-07T02:28:34;16.10;;;9.23;;
74487;SDS011;63019;51.080;13.642;2023-05-07T02:29:37;17.80;;;8.93;;
74487;SDS011;63019;51.080;13.642;2023-05-07T02:30:40;16.95;;;8.68;;
74487;SDS011;63019;51.080;13.642;2023-05-07T02:31:42;17.08;;;8.60;;
74487;SDS011;63019;51.080;13.642;2023-05-07T02:32:45;15.50;;;8.65;;
74487;SDS011;63019;51.080;13.642;2023-05-07T02:33:48;15.75;;;8.52;;
74487;SDS011;63019;51.080;13.642;2023-05-07T02:34:52;14.80;;;8.13;;
74487;SDS011;63019;51.080;13.642;2023-05-07T02:35:57;16.97;;;8.33;;
74487;SDS011;63019;51.080;13.642;2023-05-07T02:37:06;18.33;;;8.65;;
74487;SDS011;63019;51.080;13.642;2023-05-07T02:38:09;14.50;;;8.10;;
74487;SDS011;63019;51.080;13.642;2023-05-07T02:39:12;17.38;;;8.25;;
74487;SDS011;63019;51.080;13.642;2023-05-07T02:40:15;17.95;;;8.50;;
74487;SDS011;63019;51.080;13.642;2023-05-07T02:41:18;14.35;;;7.55;;
74487;SDS011;63019;51.080;13.642;2023-05-07T02:42:20;19.13;;;8.48;;
74487;SDS011;63019;51.080;13.642;2023-05-07T02:43:23;14.85;;;8.15;;
74487;SDS011;63019;51.080;13.642;2023-05-07T02:44:27;14.65;;;8.48;;
74487;SDS011;63019;51.080;13.642;2023-05-07T02:45:33;14.55;;;8.73;;
74487;SDS011;63019;51.080;13.642;2023-05-07T02:46:35;12.83;;;8.17;;
74487;SDS011;63019;51.080;13.642;2023-05-07T02:47:38;14.07;;;7.78;;
74487;SDS011;63019;51.080;13.642;2023-05-07T02:48:40;13.73;;;7.43;;
74487;SDS011;63019;51.080;13.642;2023-05-07T02:49:42;15.15;;;7.13;;
74487;SDS011;63019;51.080;13.642;2023-05-07T02:50:45;12.95;;;7.10;;
74487;SDS011;63019;51.080;13.642;2023-05-07T02:51:47;16.27;;;7.70;;
74487;SDS011;63019;51.080;13.642;2023-05-07T02:52:50;12.07;;;7.05;;
74487;SDS011;63019;51.080;13.642;2023-05-07T02:53:52;11.95;;;6.70;;
74487;SDS011;63019;51.080;13.642;2023-05-07T02:54:55;15.45;;;6.80;;
74487;SDS011;63019;51.080;13.642;2023-05-07T02:55:58;14.80;;;7.13;;
74487;SDS011;63019;51.080;13.642;2023-05-07T02:57:02;15.03;;;7.40;;
74487;SDS011;63019;51.080;13.642;2023-05-07T02:58:06;11.60;;;6.55;;
74487;SDS011;63019;51.080;13.642;2023-05-07T02:59:09;13.25;;;6.95;;
74487;SDS011;63019;51.080;13.642;2023-05-07T03:00:13;14.40;;;7.10;;
74487;SDS011;63019;51.080;13.642;2023-05-07T03:01:17;13.10;;;6.82;;
74487;SDS011;63019;51.080;13.642;2023-05-07T03:02:20;13.63;;;6.95;;
74487;SDS011;63019;51.080;13.642;2023-05-07T03:03:23;11.55;;;6.85;;
74487;SDS011;63019;51.080;13.642;2023-05-07T03:04:26;11.88;;;6.38;;
74487;SDS011;63019;51.080;13.642;2023-05-07T03:05:29;14.20;;;7.10;;
74487;SDS011;63019;51.080;13.642;2023-05-07T03:06:32;12.45;;;6.53;;
74487;SDS011;63019;51.080;13.642;2023-05-07T03:07:37;14.37;;;7.03;;
74487;SDS011;63019;51.080;13.642;2023-05-07T03:08:40;14.85;;;7.40;;
74487;SDS011;63019;51.080;13.642;2023-05-07T03:09:43;13.23;;;6.60;;
74487;SDS011;63019;51.080;13.642;2023-05-07T03:10:45;12.05;;;6.72;;
74487;SDS011;63019;51.080;13.642;2023-05-07T03:11:48;11.48;;;6.47;;
74487;SDS011;63019;51.080;13.642;2023-05-07T03:12:50;13.43;;;6.72;;
74487;SDS011;63019;51.080;13.642;2023-05-07T03:13:53;12.38;;;6.47;;
74487;SDS011;63019;51.080;13.642;2023-05-07T03:14:55;10.85;;;6.32;;
74487;SDS011;63019;51.080;13.642;2023-05-07T03:15:59;13.82;;;7.35;;
74487;SDS011;63019;51.080;13.642;2023-05-07T03:17:01;13.48;;;6.85;;
74487;SDS011;63019;51.080;13.642;2023-05-07T03:18:03;14.23;;;6.83;;
74487;SDS011;63019;51.080;13.642;2023-05-07T03:19:05;15.00;;;7.10;;
74487;SDS011;63019;51.080;13.642;2023-05-07T03:20:07;11.82;;;6.60;;
74487;SDS011;63019;51.080;13.642;2023-05-07T03:21:11;14.18;;;6.80;;
74487;SDS011;63019;51.080;13.642;2023-05-07T03:22:13;13.82;;;6.82;;
74487;SDS011;63019;51.080;13.642;2023-05-07T03:23:15;14.50;;;7.30;;
74487;SDS011;63019;51.080;13.642;2023-05-07T03:24:17;11.00;;;6.07;;
74487;SDS011;63019;51.080;13.642;2023-05-07T03:25:19;11.88;;;6.60;;
74487;SDS011;63019;51.080;13.642;2023-05-07T03:26:20;11.85;;;6.72;;
74487;SDS011;63019;51.080;13.642;2023-05-07T03:27:22;12.13;;;6.85;;
74487;SDS011;63019;51.080;13.642;2023-05-07T03:28:24;16.23;;;7.23;;
74487;SDS011;63019;51.080;13.642;2023-05-07T03:29:26;15.15;;;7.20;;
74487;SDS011;63019;51.080;13.642;2023-05-07T03:30:28;11.63;;;6.25;;
74487;SDS011;63019;51.080;13.642;2023-05-07T03:31:29;14.13;;;6.50;;
74487;SDS011;63019;51.080;13.642;2023-05-07T03:32:31;12.65;;;6.47;;
74487;SDS011;63019;51.080;13.642;2023-05-07T03:33:34;13.68;;;6.47;;
74487;SDS011;63019;51.080;13.642;2023-05-07T03:34:36;9.95;;;6.30;;
74487;SDS011;63019;51.080;13.642;2023-05-07T03:35:37;12.88;;;6.38;;
74487;SDS011;63019;51.080;13.642;2023-05-07T03:36:39;9.32;;;5.72;;
74487;SDS011;63019;51.080;13.642;2023-05-07T03:37:41;10.50;;;5.80;;
74487;SDS011;63019;51.080;13.642;2023-05-07T03:38:43;10.13;;;6.07;;
74487;SDS011;63019;51.080;13.642;2023-05-07T03:39:45;12.18;;;6.20;;
74487;SDS011;63019;51.080;13.642;2023-05-07T03:40:47;12.07;;;6.38;;
74487;SDS011;63019;51.080;13.642;2023-05-07T03:41:49;11.13;;;5.80;;
74487;SDS011;63019;51.080;13.642;2023-05-07T03:42:51;9.55;;;5.78;;
74487;SDS011;63019;51.080;13.642;2023-05-07T03:43:52;12.73;;;6.43;;
74487;SDS011;63019;51.080;13.642;2023-05-07T03:44:54;11.05;;;6.07;;
74487;SDS011;63019;51.080;13.642;2023-05-07T03:45:56;12.20;;;6.35;;
74487;SDS011;63019;51.080;13.642;2023-05-07T03:46:58;12.57;;;6.05;;
74487;SDS011;63019;51.080;13.642;2023-05-07T03:48:00;9.73;;;6.20;;
74487;SDS011;63019;51.080;13.642;2023-05-07T03:49:02;9.97;;;6.30;;
74487;SDS011;63019;51.080;13.642;2023-05-07T03:50:05;9.65;;;5.68;;
74487;SDS011;63019;51.080;13.642;2023-05-07T03:51:07;10.63;;;6.35;;
74487;SDS011;63019;51.080;13.642;2023-05-07T03:52:09;10.57;;;5.93;;
74487;SDS011;63019;51.080;13.642;2023-05-07T03:53:11;8.88;;;5.78;;
74487;SDS011;63019;51.080;13.642;2023-05-07T03:54:13;11.40;;;6.20;;
74487;SDS011;63019;51.080;13.642;2023-05-07T03:55:14;12.07;;;6.25;;
74487;SDS011;63019;51.080;13.642;2023-05-07T03:56:16;10.55;;;6.10;;
74487;SDS011;63019;51.080;13.642;2023-05-07T03:57:20;11.88;;;6.50;;
74487;SDS011;63019;51.080;13.642;2023-05-07T03:58:22;12.55;;;5.93;;
74487;SDS011;63019;51.080;13.642;2023-05-07T03:59:23;12.10;;;6.43;;
74487;SDS011;63019;51.080;13.642;2023-05-07T04:00:25;10.52;;;5.88;;
74487;SDS011;63019;51.080;13.642;2023-05-07T04:01:27;10.52;;;5.82;;
74487;SDS011;63019;51.080;13.642;2023-05-07T04:02:29;11.75;;;6.35;;
74487;SDS011;63019;51.080;13.642;2023-05-07T04:03:31;9.73;;;5.78;;
74487;SDS011;63019;51.080;13.642;2023-05-07T04:04:34;10.18;;;5.90;;
74487;SDS011;63019;51.080;13.642;2023-05-07T04:05:36;10.98;;;5.95;;
74487;SDS011;63019;51.080;13.642;2023-05-07T04:06:37;9.23;;;5.72;;
74487;SDS011;63019;51.080;13.642;2023-05-07T04:07:39;9.13;;;5.90;;
74487;SDS011;63019;51.080;13.642;2023-05-07T04:08:41;11.17;;;6.10;;
74487;SDS011;63019;51.080;13.642;2023-05-07T04:09:43;10.77;;;6.10;;
74487;SDS011;63019;51.080;13.642;2023-05-07T04:10:45;12.95;;;6.10;;
74487;SDS011;63019;51.080;13.642;2023-05-07T04:11:47;9.70;;;6.10;;
74487;SDS011;63019;51.080;13.642;2023-05-07T04:12:48;12.82;;;5.97;;
74487;SDS011;63019;51.080;13.642;2023-05-07T04:13:50;11.00;;;6.60;;
74487;SDS011;63019;51.080;13.642;2023-05-07T04:14:52;10.65;;;5.78;;
74487;SDS011;63019;51.080;13.642;2023-05-07T04:15:54;12.63;;;6.40;;
74487;SDS011;63019;51.080;13.642;2023-05-07T04:16:57;10.48;;;5.75;;
74487;SDS011;63019;51.080;13.642;2023-05-07T04:17:59;12.88;;;6.10;;
74487;SDS011;63019;51.080;13.642;2023-05-07T04:19:01;10.40;;;6.17;;
74487;SDS011;63019;51.080;13.642;2023-05-07T04:20:03;12.47;;;5.87;;
74487;SDS011;63019;51.080;13.642;2023-05-07T04:21:15;12.25;;;6.30;;
74487;SDS011;63019;51.080;13.642;2023-05-07T04:22:18;17.00;;;7.10;;
74487;SDS011;63019;51.080;13.642;2023-05-07T04:23:20;12.43;;;6.40;;
74487;SDS011;63019;51.080;13.642;2023-05-07T04:24:22;14.55;;;6.57;;
74487;SDS011;63019;51.080;13.642;2023-05-07T04:25:24;13.98;;;6.25;;
74487;SDS011;63019;51.080;13.642;2023-05-07T04:26:27;17.05;;;6.43;;
74487;SDS011;63019;51.080;13.642;2023-05-07T04:27:30;12.07;;;6.45;;
74487;SDS011;63019;51.080;13.642;2023-05-07T04:28:33;12.95;;;6.22;;
74487;SDS011;63019;51.080;13.642;2023-05-07T04:29:36;17.73;;;6.90;;
74487;SDS011;63019;51.080;13.642;2023-05-07T04:30:38;13.03;;;6.10;;
74487;SDS011;63019;51.080;13.642;2023-05-07T04:31:40;15.15;;;6.63;;
74487;SDS011;63019;51.080;13.642;2023-05-07T04:32:45;13.55;;;7.05;;
74487;SDS011;63019;51.080;13.642;2023-05-07T04:33:47;13.65;;;6.55;;
74487;SDS011;63019;51.080;13.642;2023-05-07T04:34:48;11.82;;;6.40;;
74487;SDS011;63019;51.080;13.642;2023-05-07T04:35:50;11.90;;;6.35;;
74487;SDS011;63019;51.080;13.642;2023-05-07T04:36:52;14.02;;;6.70;;
74487;SDS011;63019;51.080;13.642;2023-05-07T04:37:54;14.38;;;6.70;;
74487;SDS011;63019;51.080;13.642;2023-05-07T04:38:56;13.43;;;6.97;;
74487;SDS011;63019;51.080;13.642;2023-05-07T04:39:58;14.77;;;7.43;;
74487;SDS011;63019;51.080;13.642;2023-05-07T04:41:03;14.07;;;7.17;;
74487;SDS011;63019;51.080;13.642;2023-05-07T04:42:06;12.65;;;7.00;;
74487;SDS011;63019;51.080;13.642;2023-05-07T04:43:10;12.80;;;6.72;;
74487;SDS011;63019;51.080;13.642;2023-05-07T04:44:11;15.48;;;7.07;;
74487;SDS011;63019;51.080;13.642;2023-05-07T04:45:13;14.70;;;6.97;;
74487;SDS011;63019;51.080;13.642;2023-05-07T04:46:15;13.30;;;6.70;;
74487;SDS011;63019;51.080;13.642;2023-05-07T04:47:17;15.38;;;7.35;;
74487;SDS011;63019;51.080;13.642;2023-05-07T04:48:19;12.38;;;6.72;;
74487;SDS011;63019;51.080;13.642;2023-05-07T04:49:21;14.55;;;6.55;;
74487;SDS011;63019;51.080;13.642;2023-05-07T04:50:23;13.73;;;6.40;;
74487;SDS011;63019;51.080;13.642;2023-05-07T04:51:25;12.33;;;6.60;;
74487;SDS011;63019;51.080;13.642;2023-05-07T04:52:27;14.40;;;6.90;;
74487;SDS011;63019;51.080;13.642;2023-05-07T04:53:29;14.45;;;6.55;;
74487;SDS011;63019;51.080;13.642;2023-05-07T04:54:30;13.90;;;7.13;;
74487;SDS011;63019;51.080;13.642;2023-05-07T04:55:32;15.02;;;6.60;;
74487;SDS011;63019;51.080;13.642;2023-05-07T04:56:34;12.00;;;6.65;;
74487;SDS011;63019;51.080;13.642;2023-05-07T04:57:36;12.73;;;6.28;;
74487;SDS011;63019;51.080;13.642;2023-05-07T04:58:40;14.43;;;5.82;;
74487;SDS011;63019;51.080;13.642;2023-05-07T04:59:42;15.93;;;6.85;;
74487;SDS011;63019;51.080;13.642;2023-05-07T05:00:44;10.93;;;6.03;;
74487;SDS011;63019;51.080;13.642;2023-05-07T05:01:46;11.80;;;6.10;;
74487;SDS011;63019;51.080;13.642;2023-05-07T05:02:48;13.02;;;6.45;;
74487;SDS011;63019;51.080;13.642;2023-05-07T05:03:50;13.27;;;6.57;;
74487;SDS011;63019;51.080;13.642;2023-05-07T05:04:51;11.85;;;6.28;;
74487;SDS011;63019;51.080;13.642;2023-05-07T05:05:53;14.45;;;6.30;;
74487;SDS011;63019;51.080;13.642;2023-05-07T05:06:55;13.52;;;6.50;;
74487;SDS011;63019;51.080;13.642;2023-05-07T05:07:57;11.45;;;5.63;;
74487;SDS011;63019;51.080;13.642;2023-05-07T05:08:59;12.35;;;6.45;;
74487;SDS011;63019;51.080;13.642;2023-05-07T05:10:01;16.92;;;6.95;;
74487;SDS011;63019;51.080;13.642;2023-05-07T05:11:04;15.73;;;7.10;;
74487;SDS011;63019;51.080;13.642;2023-05-07T05:12:06;14.13;;;6.20;;
74487;SDS011;63019;51.080;13.642;2023-05-07T05:13:08;13.75;;;6.35;;
74487;SDS011;63019;51.080;13.642;2023-05-07T05:14:10;12.45;;;6.22;;
74487;SDS011;63019;51.080;13.642;2023-05-07T05:15:12;12.25;;;6.78;;
74487;SDS011;63019;51.080;13.642;2023-05-07T05:16:14;11.50;;;6.03;;
74487;SDS011;63019;51.080;13.642;2023-05-07T05:17:16;13.02;;;6.47;;
74487;SDS011;63019;51.080;13.642;2023-05-07T05:18:20;12.07;;;6.10;;
74487;SDS011;63019;51.080;13.642;2023-05-07T05:19:22;13.05;;;6.78;;
74487;SDS011;63019;51.080;13.642;2023-05-07T05:20:23;13.60;;;6.55;;
74487;SDS011;63019;51.080;13.642;2023-05-07T05:21:25;14.73;;;7.00;;
74487;SDS011;63019;51.080;13.642;2023-05-07T05:22:27;15.33;;;6.97;;
74487;SDS011;63019;51.080;13.642;2023-05-07T05:23:32;14.27;;;7.03;;
74487;SDS011;63019;51.080;13.642;2023-05-07T05:24:33;16.10;;;6.82;;
74487;SDS011;63019;51.080;13.642;2023-05-07T05:25:35;14.15;;;7.47;;
74487;SDS011;63019;51.080;13.642;2023-05-07T05:26:38;15.07;;;7.18;;
74487;SDS011;63019;51.080;13.642;2023-05-07T05:27:40;14.95;;;6.75;;
74487;SDS011;63019;51.080;13.642;2023-05-07T05:28:41;14.13;;;6.72;;
74487;SDS011;63019;51.080;13.642;2023-05-07T05:29:43;16.40;;;6.43;;
74487;SDS011;63019;51.080;13.642;2023-05-07T05:30:45;12.82;;;6.45;;
74487;SDS011;63019;51.080;13.642;2023-05-07T05:31:47;18.07;;;6.40;;
74487;SDS011;63019;51.080;13.642;2023-05-07T05:32:49;12.70;;;5.90;;
74487;SDS011;63019;51.080;13.642;2023-05-07T05:33:51;13.38;;;6.07;;
74487;SDS011;63019;51.080;13.642;2023-05-07T05:34:53;12.77;;;6.25;;
74487;SDS011;63019;51.080;13.642;2023-05-07T05:35:55;13.63;;;6.68;;
74487;SDS011;63019;51.080;13.642;2023-05-07T05:36:56;13.30;;;6.82;;
74487;SDS011;63019;51.080;13.642;2023-05-07T05:37:59;17.77;;;7.10;;
74487;SDS011;63019;51.080;13.642;2023-05-07T05:39:01;14.13;;;6.80;;
74487;SDS011;63019;51.080;13.642;2023-05-07T05:40:03;12.73;;;6.35;;
74487;SDS011;63019;51.080;13.642;2023-05-07T05:41:05;14.38;;;6.57;;
74487;SDS011;63019;51.080;13.642;2023-05-07T05:42:07;13.43;;;6.47;;
74487;SDS011;63019;51.080;13.642;2023-05-07T05:43:08;16.50;;;6.30;;
74487;SDS011;63019;51.080;13.642;2023-05-07T05:44:10;14.07;;;6.63;;
74487;SDS011;63019;51.080;13.642;2023-05-07T05:45:12;15.10;;;6.10;;
74487;SDS011;63019;51.080;13.642;2023-05-07T05:46:14;13.50;;;6.22;;
74487;SDS011;63019;51.080;13.642;2023-05-07T05:47:16;12.88;;;5.90;;
74487;SDS011;63019;51.080;13.642;2023-05-07T05:48:18;16.67;;;6.32;;
74487;SDS011;63019;51.080;13.642;2023-05-07T05:49:20;11.88;;;5.82;;
74487;SDS011;63019;51.080;13.642;2023-05-07T05:50:22;12.52;;;6.18;;
74487;SDS011;63019;51.080;13.642;2023-05-07T05:51:24;14.52;;;6.32;;
74487;SDS011;63019;51.080;13.642;2023-05-07T05:52:26;10.87;;;5.77;;
74487;SDS011;63019;51.080;13.642;2023-05-07T05:53:27;10.90;;;6.10;;
74487;SDS011;63019;51.080;13.642;2023-05-07T05:54:29;12.93;;;6.38;;
74487;SDS011;63019;51.080;13.642;2023-05-07T05:55:31;13.13;;;6.20;;
74487;SDS011;63019;51.080;13.642;2023-05-07T05:56:33;14.70;;;6.18;;
74487;SDS011;63019;51.080;13.642;2023-05-07T05:57:35;10.52;;;5.38;;
74487;SDS011;63019;51.080;13.642;2023-05-07T05:58:37;11.02;;;4.97;;
74487;SDS011;63019;51.080;13.642;2023-05-07T05:59:39;12.43;;;5.45;;
74487;SDS011;63019;51.080;13.642;2023-05-07T06:00:41;11.98;;;5.05;;
74487;SDS011;63019;51.080;13.642;2023-05-07T06:01:43;12.43;;;5.63;;
74487;SDS011;63019;51.080;13.642;2023-05-07T06:02:44;14.47;;;6.50;;
74487;SDS011;63019;51.080;13.642;2023-05-07T06:03:47;14.30;;;5.77;;
74487;SDS011;63019;51.080;13.642;2023-05-07T06:04:48;12.57;;;5.45;;
74487;SDS011;63019;51.080;13.642;2023-05-07T06:05:50;12.15;;;5.47;;
74487;SDS011;63019;51.080;13.642;2023-05-07T06:06:52;11.35;;;5.40;;
74487;SDS011;63019;51.080;13.642;2023-05-07T06:07:54;10.90;;;5.32;;